This demonstration page uses our WeatherBlox Daily Observations layout. Learn more.

Hourly Observations for October 3, 2019

Temp ( °F °C ) Dew Point ( °F °C ) Humidity (%) Winds ( mph kmh ) Pressure ( in mb ) Visibility ( mi km ) Precip ( " mm )
12:15 am 00:15 Partly Cloudy 50 10 43 6.1 77 77 NNW 10 17 30.18 1022 10 16.09344 0 0
12:54 am 00:54 Clear 49 9.4 43 6.1 80 80 NW 8 13 30.15 1021 10 16.09344 0 0
1:54 am 01:54 Mostly Cloudy 48 8.9 42 5.6 80 80 NW 5 7 30.18 1022 10 16.09344 0 0
2:25 am 02:25 Cloudy with Light Rain 48 8.9 43 6.1 83 83 NW 7 11 30.21 1023 10 16.09344 0.001 0.001
2:54 am 02:54 Cloudy 49 9.4 43 6.1 80 80 NW 8 13 30.21 1023 10 16.09344 0.001 0.001
3:54 am 03:54 Cloudy 50 10 43 6.1 77 77 NNW 8 13 30.21 1023 10 16.09344 0 0
4:54 am 04:54 Cloudy 50 10 43 6.1 77 77 N 10 17 30.24 1024 10 16.09344 0 0
5:54 am 05:54 Cloudy 49 9.4 43 6.1 80 80 NNW 9 15 30.24 1024 10 16.09344 0 0
6:23 am 06:23 Mostly Clear 48 8.9 42 5.6 80 80 NNW 9 15 30.3 1026 10 16.09344 0 0
6:54 am 06:54 Clear 47 8.3 41 5 80 80 NNW 9 15 30.27 1025 10 16.09344 0 0
7:54 am 07:54 Sunny 46 7.8 40 4.4 79 79 NNW 13 20 30.27 1025 10 16.09344 0 0
8:54 am 08:54 Sunny 46 7.8 40 4.4 79 79 N 9 15 30.3 1026 10 16.09344 0 0
9:54 am 09:54 Sunny 51 10.6 41 5 69 69 N 12 19 30.3 1026 10 16.09344 0 0
10:54 am 10:54 Sunny 53 11.7 41 5 64 64 N 13 20 30.33 1027 10 16.09344 0 0
11:54 am 11:54 Sunny 54 12.2 42 5.6 64 64 N 12 19 30.33 1027 10 16.09344 0 0
12:54 pm 12:54 Sunny 56 13.3 42 5.6 60 60 N 9 15 30.33 1027 10 16.09344 0 0
1:47 pm 13:47 Mostly Sunny 59 15 43 6.1 56 56 NNE 12 19 30.3 1026 10 16.09344 0 0
1:54 pm 13:54 Mostly Sunny 59 15 43 6.1 56 56 NNW 12 19 30.33 1027 10 16.09344 0 0
2:54 pm 14:54 Sunny 60 15.6 43 6.1 53 53 undefined N/A 30.3 1026 10 16.09344 0 0
3:54 pm 15:54 Sunny 62 16.7 42 5.6 48 48 N 13 20 30.3 1026 10 16.09344 0 0
4:54 pm 16:54 Sunny 62 16.7 43 6.1 50 50 N 9 15 30.3 1026 10 16.09344 0 0
5:54 pm 17:54 Sunny 61 16.1 42 5.6 50 50 N 8 13 30.3 1026 10 16.09344 0 0
6:54 pm 18:54 Sunny 55 12.8 44 6.7 67 67 NE 8 13 30.3 1026 10 16.09344 0 0
7:54 pm 19:54 Clear 50 10 43 6.1 77 77 NE 8 13 30.33 1027 10 16.09344 0 0
8:54 pm 20:54 Clear 49 9.4 43 6.1 80 80 NE 7 11 30.33 1027 10 16.09344 0 0
9:54 pm 21:54 Clear 49 9.4 42 5.6 77 77 NE 9 15 30.33 1027 10 16.09344 0 0
10:54 pm 22:54 Clear 44 6.7 41 5 89 89 NE 6 9 30.36 1028 10 16.09344 0 0
11:54 pm 23:54 Clear 45 7.2 40 4.4 83 83 NE 5 7 30.36 1028 10 16.09344 0 0

Powered by AerisWeather